SBCP

Details ICAO SBCP (CAW)
Name Bartolomeu Lisandro
Region Brazil
Timezone America/Sao_Paulo (UTC-2.0)
Plans Departing 12
Arriving 12
Stats Elevation 57 ft / 17 m (AMSL)
Location -21.698334° -41.301668°
Runways 1
Magnetic Variation 23.475° W
Sunrise 2017-12-14 07:58:03 UTC / 2017-12-14 05:58:03 Local
Sunset 2017-12-14 21:24:38 UTC / 2017-12-14 19:24:38 Local
Advertisement - Login to hide

Runways

ID Width Length Bearing (true) Bearing (mag) Surface Threshold Offset Overrun Length
07 148 ft / 45 m 5,093 ft / 1,552 m 46.60° 70.08° Asphalt 0 ft / 0 m 0 ft / 0 m
25 148 ft / 45 m 5,093 ft / 1,552 m 226.60° 250.08° Asphalt 0 ft / 0 m 0 ft / 0 m

Map

Weather


0- 5 10 15 20 25 30 35+ Temperature / ° C

Clouds and Precipitation
Forecast for 2017-12-15 00:00 UTC. Updated 9 minutes ago

Ground ~20,000 ft ~40,000 ft Winds

METAR

SBCP 141900Z 11014KT 9999 SCT020 OVC090 26/21 Q1016

TAF

TAF SBCP 141400Z 1418/1506 12015KT 9999 FEW025 TX28/1418Z TN24/1506Z BECMG 1422/1424 08008KT RMK PGU

Frequencies

Tower 125.70 MHz CAMPOS RDO
Warning: Do not use this data for real-world aviation or navigation. No guarantee of current accuracy is given.